sensor_id;sensor_type;location;lat;lon;timestamp;pressure;altitude;pressure_sealevel;temperature;humidity
75998;BME280;64685;48.762;44.822;2023-05-10T00:02:15;101537.75;;;10.45;42.13
75998;BME280;64685;48.762;44.822;2023-05-10T00:07:18;101541.91;;;10.47;41.69
75998;BME280;64685;48.762;44.822;2023-05-10T00:12:21;101539.09;;;10.47;41.64
75998;BME280;64685;48.762;44.822;2023-05-10T00:17:23;101530.81;;;10.42;42.55
75998;BME280;64685;48.762;44.822;2023-05-10T00:22:26;101532.38;;;10.48;42.54
75998;BME280;64685;48.762;44.822;2023-05-10T00:27:28;101524.16;;;10.57;42.18
75998;BME280;64685;48.762;44.822;2023-05-10T00:32:31;101528.78;;;10.66;42.10
75998;BME280;64685;48.762;44.822;2023-05-10T00:37:34;101534.22;;;10.58;42.02
75998;BME280;64685;48.762;44.822;2023-05-10T00:42:36;101549.75;;;10.64;41.81
75998;BME280;64685;48.762;44.822;2023-05-10T00:47:40;101553.59;;;10.68;41.77
75998;BME280;64685;48.762;44.822;2023-05-10T00:52:43;101554.44;;;10.68;42.40
75998;BME280;64685;48.762;44.822;2023-05-10T00:57:47;101551.34;;;10.70;42.28
75998;BME280;64685;48.762;44.822;2023-05-10T01:02:50;101548.84;;;10.68;42.10
75998;BME280;64685;48.762;44.822;2023-05-10T01:07:53;101542.75;;;10.66;42.63
75998;BME280;64685;48.762;44.822;2023-05-10T01:12:55;101548.84;;;10.68;42.40
75998;BME280;64685;48.762;44.822;2023-05-10T01:17:59;101534.94;;;10.63;41.91
75998;BME280;64685;48.762;44.822;2023-05-10T01:23:30;101542.13;;;10.69;42.67
75998;BME280;64685;48.762;44.822;2023-05-10T01:34:17;101538.34;;;10.60;42.67
75998;BME280;64685;48.762;44.822;2023-05-10T01:45:00;101527.63;;;10.49;42.92
75998;BME280;64685;48.762;44.822;2023-05-10T01:50:08;101531.13;;;10.41;42.87
75998;BME280;64685;48.762;44.822;2023-05-10T01:55:14;101533.66;;;10.37;44.07
75998;BME280;64685;48.762;44.822;2023-05-10T02:00:19;101530.88;;;10.37;43.98
75998;BME280;64685;48.762;44.822;2023-05-10T02:05:26;101530.72;;;10.29;43.99
75998;BME280;64685;48.762;44.822;2023-05-10T02:10:32;101540.84;;;10.25;43.73
75998;BME280;64685;48.762;44.822;2023-05-10T02:15:37;101544.38;;;10.30;44.35
75998;BME280;64685;48.762;44.822;2023-05-10T02:20:41;101533.16;;;10.35;44.46
75998;BME280;64685;48.762;44.822;2023-05-10T02:25:46;101524.56;;;10.32;44.91
75998;BME280;64685;48.762;44.822;2023-05-10T02:30:50;101513.00;;;10.20;45.57
75998;BME280;64685;48.762;44.822;2023-05-10T02:35:54;101504.63;;;10.38;44.12
75998;BME280;64685;48.762;44.822;2023-05-10T02:40:59;101505.59;;;11.97;41.99
75998;BME280;64685;48.762;44.822;2023-05-10T02:46:02;101489.09;;;13.11;39.78
75998;BME280;64685;48.762;44.822;2023-05-10T02:51:07;101499.63;;;12.48;40.15
75998;BME280;64685;48.762;44.822;2023-05-10T02:56:43;101506.03;;;13.66;39.54
75998;BME280;64685;48.762;44.822;2023-05-10T03:01:49;101491.53;;;14.29;37.96
75998;BME280;64685;48.762;44.822;2023-05-10T03:06:52;101495.13;;;15.06;37.09
75998;BME280;64685;48.762;44.822;2023-05-10T03:17:08;101508.44;;;16.67;34.83
75998;BME280;64685;48.762;44.822;2023-05-10T03:22:20;101506.84;;;17.11;33.75
75998;BME280;64685;48.762;44.822;2023-05-10T03:27:25;101514.84;;;17.98;33.12
75998;BME280;64685;48.762;44.822;2023-05-10T03:32:29;101509.13;;;18.58;32.36
75998;BME280;64685;48.762;44.822;2023-05-10T03:37:35;101514.78;;;18.58;31.70
75998;BME280;64685;48.762;44.822;2023-05-10T03:42:38;101520.75;;;19.08;31.12
75998;BME280;64685;48.762;44.822;2023-05-10T03:47:41;101524.38;;;19.79;30.16
75998;BME280;64685;48.762;44.822;2023-05-10T03:52:44;101518.16;;;19.58;29.67
75998;BME280;64685;48.762;44.822;2023-05-10T03:57:47;101506.19;;;19.64;29.57
75998;BME280;64685;48.762;44.822;2023-05-10T04:02:51;101500.41;;;20.07;29.20
75998;BME280;64685;48.762;44.822;2023-05-10T04:07:54;101501.69;;;20.10;28.78
75998;BME280;64685;48.762;44.822;2023-05-10T04:12:57;101503.25;;;20.57;28.58
75998;BME280;64685;48.762;44.822;2023-05-10T04:18:00;101501.50;;;21.06;27.82
75998;BME280;64685;48.762;44.822;2023-05-10T04:23:03;101499.72;;;21.59;27.84
75998;BME280;64685;48.762;44.822;2023-05-10T04:28:05;101507.09;;;22.08;27.10
75998;BME280;64685;48.762;44.822;2023-05-10T04:33:08;101504.53;;;22.00;26.86
75998;BME280;64685;48.762;44.822;2023-05-10T04:38:10;101526.81;;;21.94;27.61
75998;BME280;64685;48.762;44.822;2023-05-10T04:43:13;101534.09;;;22.96;26.32
75998;BME280;64685;48.762;44.822;2023-05-10T04:48:16;101527.00;;;23.45;25.91
75998;BME280;64685;48.762;44.822;2023-05-10T04:53:18;101505.31;;;23.74;25.05
75998;BME280;64685;48.762;44.822;2023-05-10T04:58:21;101498.53;;;22.05;26.33
75998;BME280;64685;48.762;44.822;2023-05-10T05:03:23;101518.16;;;22.13;26.09
75998;BME280;64685;48.762;44.822;2023-05-10T05:08:26;101516.81;;;23.44;25.38
75998;BME280;64685;48.762;44.822;2023-05-10T05:13:29;101494.38;;;23.79;25.10
75998;BME280;64685;48.762;44.822;2023-05-10T05:18:31;101502.44;;;24.68;24.19
75998;BME280;64685;48.762;44.822;2023-05-10T05:23:34;101494.78;;;22.01;26.40
75998;BME280;64685;48.762;44.822;2023-05-10T05:28:37;101492.84;;;20.99;27.35
75998;BME280;64685;48.762;44.822;2023-05-10T05:33:40;101494.72;;;20.57;28.23
75998;BME280;64685;48.762;44.822;2023-05-10T05:38:43;101490.66;;;21.12;27.91
75998;BME280;64685;48.762;44.822;2023-05-10T05:43:45;101501.78;;;19.98;29.69
75998;BME280;64685;48.762;44.822;2023-05-10T05:48:48;101512.72;;;20.30;29.74
75998;BME280;64685;48.762;44.822;2023-05-10T05:53:50;101500.03;;;19.62;30.25
75998;BME280;64685;48.762;44.822;2023-05-10T05:58:53;101488.78;;;19.07;31.40
75998;BME280;64685;48.762;44.822;2023-05-10T06:03:56;101513.59;;;19.26;31.32
75998;BME280;64685;48.762;44.822;2023-05-10T06:08:58;101521.97;;;18.55;31.94
75998;BME280;64685;48.762;44.822;2023-05-10T06:14:01;101510.91;;;18.50;32.19
75998;BME280;64685;48.762;44.822;2023-05-10T06:19:05;101516.47;;;18.35;32.88
75998;BME280;64685;48.762;44.822;2023-05-10T06:24:08;101525.00;;;18.74;32.65
75998;BME280;64685;48.762;44.822;2023-05-10T06:29:10;101501.16;;;18.48;32.89
75998;BME280;64685;48.762;44.822;2023-05-10T06:34:13;101497.50;;;18.11;33.42
75998;BME280;64685;48.762;44.822;2023-05-10T06:39:16;101491.84;;;17.99;33.53
75998;BME280;64685;48.762;44.822;2023-05-10T06:44:18;101498.78;;;17.90;33.83
75998;BME280;64685;48.762;44.822;2023-05-10T06:49:21;101503.75;;;17.93;34.11
75998;BME280;64685;48.762;44.822;2023-05-10T06:54:24;101510.31;;;17.61;35.16
75998;BME280;64685;48.762;44.822;2023-05-10T06:59:26;101502.34;;;17.87;34.87
75998;BME280;64685;48.762;44.822;2023-05-10T07:04:29;101514.47;;;18.11;34.33
75998;BME280;64685;48.762;44.822;2023-05-10T07:09:31;101515.16;;;18.56;34.22
75998;BME280;64685;48.762;44.822;2023-05-10T07:14:34;101523.25;;;18.58;34.64
75998;BME280;64685;48.762;44.822;2023-05-10T07:19:37;101514.63;;;19.06;34.27
75998;BME280;64685;48.762;44.822;2023-05-10T07:24:40;101511.56;;;19.85;33.41
75998;BME280;64685;48.762;44.822;2023-05-10T07:29:42;101522.16;;;19.41;33.60
75998;BME280;64685;48.762;44.822;2023-05-10T07:34:45;101512.28;;;19.66;33.60
75998;BME280;64685;48.762;44.822;2023-05-10T07:39:47;101517.59;;;19.99;34.54
75998;BME280;64685;48.762;44.822;2023-05-10T07:44:50;101508.00;;;20.19;34.79
75998;BME280;64685;48.762;44.822;2023-05-10T07:49:53;101488.47;;;20.67;34.40
75998;BME280;64685;48.762;44.822;2023-05-10T07:54:55;101495.78;;;21.86;33.42
75998;BME280;64685;48.762;44.822;2023-05-10T07:59:59;101491.00;;;21.93;33.24
75998;BME280;64685;48.762;44.822;2023-05-10T08:05:01;101492.00;;;22.04;32.93
75998;BME280;64685;48.762;44.822;2023-05-10T08:10:05;101487.13;;;22.83;31.85
75998;BME280;64685;48.762;44.822;2023-05-10T08:15:08;101490.00;;;22.86;32.01
75998;BME280;64685;48.762;44.822;2023-05-10T08:20:11;101481.06;;;23.17;30.86
75998;BME280;64685;48.762;44.822;2023-05-10T08:25:15;101486.06;;;24.07;29.96
75998;BME280;64685;48.762;44.822;2023-05-10T08:30:17;101468.81;;;23.93;28.85
75998;BME280;64685;48.762;44.822;2023-05-10T08:35:20;101464.09;;;23.68;29.25
75998;BME280;64685;48.762;44.822;2023-05-10T08:40:24;101455.31;;;23.47;29.22
75998;BME280;64685;48.762;44.822;2023-05-10T08:45:32;101447.13;;;23.85;28.78
75998;BME280;64685;48.762;44.822;2023-05-10T08:50:39;101446.22;;;24.96;27.33
75998;BME280;64685;48.762;44.822;2023-05-10T08:55:42;101436.56;;;26.34;26.39
75998;BME280;64685;48.762;44.822;2023-05-10T09:00:45;101433.56;;;28.13;25.01
75998;BME280;64685;48.762;44.822;2023-05-10T09:05:49;101430.34;;;27.56;25.06
75998;BME280;64685;48.762;44.822;2023-05-10T09:10:54;101428.44;;;26.15;25.81
75998;BME280;64685;48.762;44.822;2023-05-10T09:15:57;101423.94;;;26.00;25.23
75998;BME280;64685;48.762;44.822;2023-05-10T09:21:14;101406.34;;;25.45;25.78
75998;BME280;64685;48.762;44.822;2023-05-10T09:26:22;101405.72;;;24.80;26.26
75998;BME280;64685;48.762;44.822;2023-05-10T09:31:43;101402.13;;;24.15;26.92
75998;BME280;64685;48.762;44.822;2023-05-10T09:36:54;101400.63;;;25.35;25.81
75998;BME280;64685;48.762;44.822;2023-05-10T09:41:58;101414.50;;;26.24;25.65
75998;BME280;64685;48.762;44.822;2023-05-10T09:47:02;101419.31;;;26.76;24.74
75998;BME280;64685;48.762;44.822;2023-05-10T09:52:08;101413.69;;;27.88;23.89
75998;BME280;64685;48.762;44.822;2023-05-10T09:57:20;101408.34;;;28.31;23.05
75998;BME280;64685;48.762;44.822;2023-05-10T10:02:28;101396.34;;;29.36;22.56
75998;BME280;64685;48.762;44.822;2023-05-10T10:07:31;101399.28;;;29.59;22.94
75998;BME280;64685;48.762;44.822;2023-05-10T10:12:34;101404.06;;;29.92;22.19
75998;BME280;64685;48.762;44.822;2023-05-10T10:17:37;101414.09;;;28.31;22.64
75998;BME280;64685;48.762;44.822;2023-05-10T10:22:41;101400.47;;;27.47;23.60
75998;BME280;64685;48.762;44.822;2023-05-10T10:38:59;101383.72;;;24.91;26.40
75998;BME280;64685;48.762;44.822;2023-05-10T10:54:46;101369.88;;;25.11;26.88
75998;BME280;64685;48.762;44.822;2023-05-10T10:59:58;101367.94;;;23.72;28.27
75998;BME280;64685;48.762;44.822;2023-05-10T11:21:16;101344.59;;;22.13;30.72
75998;BME280;64685;48.762;44.822;2023-05-10T11:26:19;101343.09;;;22.52;31.25
75998;BME280;64685;48.762;44.822;2023-05-10T11:31:25;101337.22;;;21.83;31.67
75998;BME280;64685;48.762;44.822;2023-05-10T11:36:33;101338.19;;;22.20;31.30
75998;BME280;64685;48.762;44.822;2023-05-10T11:41:36;101324.31;;;22.44;31.00
75998;BME280;64685;48.762;44.822;2023-05-10T11:46:38;101314.03;;;22.10;31.38
75998;BME280;64685;48.762;44.822;2023-05-10T11:51:41;101324.50;;;21.73;32.24
75998;BME280;64685;48.762;44.822;2023-05-10T11:56:45;101332.03;;;22.80;31.70
75998;BME280;64685;48.762;44.822;2023-05-10T12:01:48;101340.44;;;22.37;31.47
75998;BME280;64685;48.762;44.822;2023-05-10T12:06:50;101330.34;;;22.13;32.03
75998;BME280;64685;48.762;44.822;2023-05-10T12:11:55;101339.66;;;21.81;32.37
75998;BME280;64685;48.762;44.822;2023-05-10T12:16:59;101337.47;;;21.48;32.54
75998;BME280;64685;48.762;44.822;2023-05-10T12:22:04;101330.00;;;21.89;32.39
75998;BME280;64685;48.762;44.822;2023-05-10T12:27:08;101342.22;;;21.67;32.78
75998;BME280;64685;48.762;44.822;2023-05-10T12:32:11;101330.00;;;21.63;32.75
75998;BME280;64685;48.762;44.822;2023-05-10T12:37:13;101342.09;;;21.34;33.12
75998;BME280;64685;48.762;44.822;2023-05-10T12:42:16;101341.09;;;21.00;33.45
75998;BME280;64685;48.762;44.822;2023-05-10T12:47:19;101339.03;;;20.78;33.74
75998;BME280;64685;48.762;44.822;2023-05-10T12:52:21;101341.34;;;20.92;33.87
75998;BME280;64685;48.762;44.822;2023-05-10T12:57:24;101327.00;;;20.85;33.77
75998;BME280;64685;48.762;44.822;2023-05-10T13:02:27;101322.41;;;21.22;33.88
75998;BME280;64685;48.762;44.822;2023-05-10T13:07:29;101321.06;;;21.38;34.03
75998;BME280;64685;48.762;44.822;2023-05-10T13:12:32;101322.47;;;21.25;34.72
75998;BME280;64685;48.762;44.822;2023-05-10T13:17:35;101322.41;;;20.80;34.63
75998;BME280;64685;48.762;44.822;2023-05-10T13:22:37;101320.47;;;20.62;35.29
75998;BME280;64685;48.762;44.822;2023-05-10T13:27:41;101314.78;;;20.62;35.13
75998;BME280;64685;48.762;44.822;2023-05-10T13:32:44;101325.78;;;20.44;35.69
75998;BME280;64685;48.762;44.822;2023-05-10T13:37:47;101337.34;;;20.36;35.82
75998;BME280;64685;48.762;44.822;2023-05-10T13:42:51;101334.53;;;20.17;36.46
75998;BME280;64685;48.762;44.822;2023-05-10T13:47:55;101313.19;;;19.88;36.72
75998;BME280;64685;48.762;44.822;2023-05-10T13:52:57;101323.09;;;19.79;37.16
75998;BME280;64685;48.762;44.822;2023-05-10T13:58:00;101324.03;;;19.67;37.70
75998;BME280;64685;48.762;44.822;2023-05-10T14:03:03;101329.69;;;19.67;37.47
75998;BME280;64685;48.762;44.822;2023-05-10T14:08:07;101332.50;;;19.48;38.31
75998;BME280;64685;48.762;44.822;2023-05-10T14:13:11;101352.69;;;19.16;39.58
75998;BME280;64685;48.762;44.822;2023-05-10T14:18:14;101346.66;;;18.31;43.35
75998;BME280;64685;48.762;44.822;2023-05-10T14:23:17;101334.31;;;17.84;44.75
75998;BME280;64685;48.762;44.822;2023-05-10T14:28:19;101342.91;;;17.76;45.92
75998;BME280;64685;48.762;44.822;2023-05-10T14:33:23;101340.56;;;17.78;45.96
75998;BME280;64685;48.762;44.822;2023-05-10T14:38:25;101338.69;;;17.70;46.85
75998;BME280;64685;48.762;44.822;2023-05-10T14:43:28;101335.63;;;17.51;47.81
75998;BME280;64685;48.762;44.822;2023-05-10T14:48:31;101347.03;;;17.30;49.25
75998;BME280;64685;48.762;44.822;2023-05-10T14:53:33;101344.31;;;17.10;50.19
75998;BME280;64685;48.762;44.822;2023-05-10T14:58:36;101348.09;;;17.02;50.39
75998;BME280;64685;48.762;44.822;2023-05-10T15:03:39;101354.88;;;17.01;51.16
75998;BME280;64685;48.762;44.822;2023-05-10T15:08:43;101355.84;;;17.05;51.56
75998;BME280;64685;48.762;44.822;2023-05-10T15:13:47;101356.69;;;17.05;51.36
75998;BME280;64685;48.762;44.822;2023-05-10T15:18:49;101342.66;;;16.97;52.11
75998;BME280;64685;48.762;44.822;2023-05-10T15:23:52;101353.47;;;16.95;52.56
75998;BME280;64685;48.762;44.822;2023-05-10T15:28:55;101343.34;;;16.82;54.07
75998;BME280;64685;48.762;44.822;2023-05-10T15:33:58;101344.31;;;16.53;54.94
75998;BME280;64685;48.762;44.822;2023-05-10T15:39:03;101346.28;;;16.41;55.56
75998;BME280;64685;48.762;44.822;2023-05-10T15:44:06;101349.81;;;16.29;56.71
75998;BME280;64685;48.762;44.822;2023-05-10T15:49:08;101337.75;;;16.29;57.15
75998;BME280;64685;48.762;44.822;2023-05-10T15:54:11;101349.91;;;16.21;57.04
75998;BME280;64685;48.762;44.822;2023-05-10T15:59:13;101360.91;;;16.14;57.94
75998;BME280;64685;48.762;44.822;2023-05-10T16:04:16;101358.63;;;16.07;58.81
75998;BME280;64685;48.762;44.822;2023-05-10T16:09:19;101355.75;;;15.95;59.18
75998;BME280;64685;48.762;44.822;2023-05-10T16:14:22;101351.84;;;15.88;60.33
75998;BME280;64685;48.762;44.822;2023-05-10T16:19:25;101363.31;;;15.83;60.88
75998;BME280;64685;48.762;44.822;2023-05-10T16:24:31;101365.09;;;15.67;61.91
75998;BME280;64685;48.762;44.822;2023-05-10T16:29:33;101368.44;;;15.60;62.49
75998;BME280;64685;48.762;44.822;2023-05-10T16:34:36;101384.53;;;15.51;63.18
75998;BME280;64685;48.762;44.822;2023-05-10T16:39:38;101375.00;;;15.44;64.45
75998;BME280;64685;48.762;44.822;2023-05-10T16:44:41;101380.69;;;15.35;64.66
75998;BME280;64685;48.762;44.822;2023-05-10T16:49:43;101373.75;;;15.33;64.40
75998;BME280;64685;48.762;44.822;2023-05-10T16:54:46;101382.19;;;15.33;64.68
75998;BME280;64685;48.762;44.822;2023-05-10T16:59:49;101388.16;;;15.23;65.44
75998;BME280;64685;48.762;44.822;2023-05-10T17:04:54;101392.19;;;15.13;66.05
75998;BME280;64685;48.762;44.822;2023-05-10T17:09:57;101397.00;;;15.04;67.34
75998;BME280;64685;48.762;44.822;2023-05-10T17:15:00;101419.84;;;14.94;67.26
75998;BME280;64685;48.762;44.822;2023-05-10T17:20:06;101414.91;;;14.91;68.04
75998;BME280;64685;48.762;44.822;2023-05-10T17:25:09;101426.00;;;14.96;68.28
75998;BME280;64685;48.762;44.822;2023-05-10T17:30:12;101427.13;;;14.95;69.04
75998;BME280;64685;48.762;44.822;2023-05-10T17:35:15;101432.44;;;14.88;69.26
75998;BME280;64685;48.762;44.822;2023-05-10T17:40:18;101430.50;;;14.80;70.04
75998;BME280;64685;48.762;44.822;2023-05-10T17:45:21;101423.69;;;14.81;70.75
75998;BME280;64685;48.762;44.822;2023-05-10T17:50:24;101427.00;;;14.75;70.82
75998;BME280;64685;48.762;44.822;2023-05-10T17:55:27;101415.94;;;14.70;71.33
75998;BME280;64685;48.762;44.822;2023-05-10T18:00:32;101415.44;;;14.68;71.21
75998;BME280;64685;48.762;44.822;2023-05-10T18:05:35;101406.72;;;14.52;71.62
75998;BME280;64685;48.762;44.822;2023-05-10T18:10:38;101425.09;;;14.41;72.66
75998;BME280;64685;48.762;44.822;2023-05-10T18:15:42;101414.81;;;14.28;73.17
75998;BME280;64685;48.762;44.822;2023-05-10T18:20:45;101418.59;;;14.15;73.69
75998;BME280;64685;48.762;44.822;2023-05-10T18:25:47;101432.00;;;14.10;74.21
75998;BME280;64685;48.762;44.822;2023-05-10T18:30:50;101424.19;;;13.98;74.81
75998;BME280;64685;48.762;44.822;2023-05-10T18:35:53;101429.81;;;13.98;75.40
75998;BME280;64685;48.762;44.822;2023-05-10T18:40:56;101428.00;;;13.94;75.50
75998;BME280;64685;48.762;44.822;2023-05-10T18:45:59;101430.78;;;13.85;75.93
75998;BME280;64685;48.762;44.822;2023-05-10T18:51:01;101440.84;;;13.78;76.50
75998;BME280;64685;48.762;44.822;2023-05-10T18:56:04;101417.53;;;13.77;76.81
75998;BME280;64685;48.762;44.822;2023-05-10T19:01:08;101413.41;;;13.75;77.06
75998;BME280;64685;48.762;44.822;2023-05-10T19:06:11;101426.78;;;13.69;77.12
75998;BME280;64685;48.762;44.822;2023-05-10T19:11:13;101430.06;;;13.63;77.53
75998;BME280;64685;48.762;44.822;2023-05-10T19:16:16;101418.38;;;13.69;77.39
75998;BME280;64685;48.762;44.822;2023-05-10T19:21:23;101405.50;;;13.68;77.75
75998;BME280;64685;48.762;44.822;2023-05-10T19:26:26;101407.47;;;13.68;77.99
75998;BME280;64685;48.762;44.822;2023-05-10T19:31:29;101405.97;;;13.62;78.24
75998;BME280;64685;48.762;44.822;2023-05-10T19:36:32;101403.28;;;13.57;78.23
75998;BME280;64685;48.762;44.822;2023-05-10T19:41:35;101405.63;;;13.55;78.58
75998;BME280;64685;48.762;44.822;2023-05-10T19:46:38;101385.63;;;13.48;78.56
75998;BME280;64685;48.762;44.822;2023-05-10T19:51:41;101375.72;;;13.42;78.58
75998;BME280;64685;48.762;44.822;2023-05-10T19:56:43;101342.97;;;13.29;78.45
75998;BME280;64685;48.762;44.822;2023-05-10T20:01:46;101345.44;;;13.22;78.70
75998;BME280;64685;48.762;44.822;2023-05-10T20:06:48;101349.25;;;13.26;78.76
75998;BME280;64685;48.762;44.822;2023-05-10T20:11:51;101342.28;;;13.15;79.01
75998;BME280;64685;48.762;44.822;2023-05-10T20:16:53;101366.53;;;13.20;79.05
75998;BME280;64685;48.762;44.822;2023-05-10T20:21:57;101358.81;;;13.25;78.93
75998;BME280;64685;48.762;44.822;2023-05-10T20:26:59;101360.16;;;13.28;79.21
75998;BME280;64685;48.762;44.822;2023-05-10T20:32:03;101352.06;;;13.26;79.07
75998;BME280;64685;48.762;44.822;2023-05-10T20:37:06;101350.22;;;13.30;79.06
75998;BME280;64685;48.762;44.822;2023-05-10T20:42:09;101350.44;;;13.34;79.27
75998;BME280;64685;48.762;44.822;2023-05-10T20:47:13;101338.38;;;13.33;79.42
75998;BME280;64685;48.762;44.822;2023-05-10T20:52:16;101347.94;;;13.32;79.49
75998;BME280;64685;48.762;44.822;2023-05-10T20:57:18;101344.44;;;13.27;79.13
75998;BME280;64685;48.762;44.822;2023-05-10T21:02:21;101343.81;;;13.30;79.45
75998;BME280;64685;48.762;44.822;2023-05-10T21:07:24;101337.38;;;13.29;79.55
75998;BME280;64685;48.762;44.822;2023-05-10T21:12:26;101342.34;;;13.32;79.67
75998;BME280;64685;48.762;44.822;2023-05-10T21:17:29;101342.16;;;13.29;79.48
75998;BME280;64685;48.762;44.822;2023-05-10T21:22:31;101356.06;;;13.42;79.42
75998;BME280;64685;48.762;44.822;2023-05-10T21:27:34;101349.44;;;13.38;79.29
75998;BME280;64685;48.762;44.822;2023-05-10T21:32:36;101339.22;;;13.42;79.53
75998;BME280;64685;48.762;44.822;2023-05-10T21:37:39;101334.09;;;13.44;79.36
75998;BME280;64685;48.762;44.822;2023-05-10T21:42:41;101314.16;;;13.46;79.39
75998;BME280;64685;48.762;44.822;2023-05-10T21:47:44;101323.53;;;13.49;79.33
75998;BME280;64685;48.762;44.822;2023-05-10T21:52:47;101304.41;;;13.52;79.31
75998;BME280;64685;48.762;44.822;2023-05-10T21:57:49;101286.09;;;13.46;79.50
75998;BME280;64685;48.762;44.822;2023-05-10T22:02:52;101285.41;;;13.40;79.50
75998;BME280;64685;48.762;44.822;2023-05-10T22:07:54;101292.84;;;13.36;79.54
75998;BME280;64685;48.762;44.822;2023-05-10T22:12:58;101312.50;;;13.45;79.67
75998;BME280;64685;48.762;44.822;2023-05-10T22:18:01;101304.38;;;13.35;79.81
75998;BME280;64685;48.762;44.822;2023-05-10T22:23:03;101303.69;;;13.29;79.93
75998;BME280;64685;48.762;44.822;2023-05-10T22:28:06;101305.84;;;13.24;80.11
75998;BME280;64685;48.762;44.822;2023-05-10T22:33:10;101314.09;;;13.20;80.13
75998;BME280;64685;48.762;44.822;2023-05-10T22:38:13;101300.84;;;13.12;80.31
75998;BME280;64685;48.762;44.822;2023-05-10T22:43:16;101298.03;;;13.04;80.65
75998;BME280;64685;48.762;44.822;2023-05-10T22:48:19;101304.13;;;12.97;80.87
75998;BME280;64685;48.762;44.822;2023-05-10T22:53:22;101291.56;;;12.95;81.04
75998;BME280;64685;48.762;44.822;2023-05-10T22:58:25;101295.31;;;12.90;81.00
75998;BME280;64685;48.762;44.822;2023-05-10T23:03:28;101303.84;;;12.85;81.44
75998;BME280;64685;48.762;44.822;2023-05-10T23:08:31;101288.03;;;12.81;81.82
75998;BME280;64685;48.762;44.822;2023-05-10T23:13:33;101290.81;;;12.81;82.08
75998;BME280;64685;48.762;44.822;2023-05-10T23:18:36;101298.78;;;12.87;82.27
75998;BME280;64685;48.762;44.822;2023-05-10T23:23:38;101302.34;;;12.79;82.25
75998;BME280;64685;48.762;44.822;2023-05-10T23:28:41;101298.22;;;12.77;82.29
75998;BME280;64685;48.762;44.822;2023-05-10T23:33:44;101297.06;;;12.69;82.87
75998;BME280;64685;48.762;44.822;2023-05-10T23:38:48;101306.09;;;12.66;82.79
75998;BME280;64685;48.762;44.822;2023-05-10T23:43:50;101283.81;;;12.61;82.43
75998;BME280;64685;48.762;44.822;2023-05-10T23:48:52;101280.31;;;12.47;82.68
75998;BME280;64685;48.762;44.822;2023-05-10T23:53:55;101291.16;;;12.49;82.79
75998;BME280;64685;48.762;44.822;2023-05-10T23:58:57;101291.63;;;12.42;82.61
